sensor_id;sensor_type;location;lat;lon;timestamp;temperature;humidity
3348;DHT22;1687;49.540;8.574;2022-11-12T00:01:21;10.00;99.40
3348;DHT22;1687;49.540;8.574;2022-11-12T00:03:47;10.00;99.50
3348;DHT22;1687;49.540;8.574;2022-11-12T00:06:13;10.00;99.30
3348;DHT22;1687;49.540;8.574;2022-11-12T00:08:38;9.90;99.90
3348;DHT22;1687;49.540;8.574;2022-11-12T00:11:04;9.90;99.90
3348;DHT22;1687;49.540;8.574;2022-11-12T00:13:30;9.90;99.90
3348;DHT22;1687;49.540;8.574;2022-11-12T00:15:56;9.90;99.90
3348;DHT22;1687;49.540;8.574;2022-11-12T00:18:22;9.90;99.90
3348;DHT22;1687;49.540;8.574;2022-11-12T00:20:47;9.90;99.90
3348;DHT22;1687;49.540;8.574;2022-11-12T00:23:13;10.00;99.50
3348;DHT22;1687;49.540;8.574;2022-11-12T00:25:39;9.90;99.90
3348;DHT22;1687;49.540;8.574;2022-11-12T00:28:07;9.90;99.90
3348;DHT22;1687;49.540;8.574;2022-11-12T00:30:37;9.90;99.90
3348;DHT22;1687;49.540;8.574;2022-11-12T00:33:04;9.80;99.80
3348;DHT22;1687;49.540;8.574;2022-11-12T00:35:31;9.80;99.90
3348;DHT22;1687;49.540;8.574;2022-11-12T00:37:57;9.80;99.90
3348;DHT22;1687;49.540;8.574;2022-11-12T00:40:24;9.80;99.90
3348;DHT22;1687;49.540;8.574;2022-11-12T00:42:52;9.80;99.90
3348;DHT22;1687;49.540;8.574;2022-11-12T00:45:19;9.80;99.90
3348;DHT22;1687;49.540;8.574;2022-11-12T00:47:45;9.80;99.90
3348;DHT22;1687;49.540;8.574;2022-11-12T00:50:10;9.80;99.90
3348;DHT22;1687;49.540;8.574;2022-11-12T00:52:36;9.70;99.90
3348;DHT22;1687;49.540;8.574;2022-11-12T00:55:02;9.70;99.90
3348;DHT22;1687;49.540;8.574;2022-11-12T00:57:28;9.70;99.90
3348;DHT22;1687;49.540;8.574;2022-11-12T00:59:54;9.70;99.90
3348;DHT22;1687;49.540;8.574;2022-11-12T01:02:19;9.70;99.90
3348;DHT22;1687;49.540;8.574;2022-11-12T01:04:46;9.70;99.90
3348;DHT22;1687;49.540;8.574;2022-11-12T01:07:12;9.70;99.90
3348;DHT22;1687;49.540;8.574;2022-11-12T01:09:40;9.80;99.90
3348;DHT22;1687;49.540;8.574;2022-11-12T01:12:06;9.80;99.90
3348;DHT22;1687;49.540;8.574;2022-11-12T01:14:32;9.80;99.90
3348;DHT22;1687;49.540;8.574;2022-11-12T01:16:58;9.80;99.90
3348;DHT22;1687;49.540;8.574;2022-11-12T01:19:23;9.90;99.90
3348;DHT22;1687;49.540;8.574;2022-11-12T01:21:49;9.80;99.90
3348;DHT22;1687;49.540;8.574;2022-11-12T01:24:15;9.80;99.90
3348;DHT22;1687;49.540;8.574;2022-11-12T01:26:40;9.80;99.90
3348;DHT22;1687;49.540;8.574;2022-11-12T01:29:06;9.90;99.90
3348;DHT22;1687;49.540;8.574;2022-11-12T01:31:34;9.80;99.80
3348;DHT22;1687;49.540;8.574;2022-11-12T01:34:04;9.80;99.90
3348;DHT22;1687;49.540;8.574;2022-11-12T01:36:34;9.80;99.90
3348;DHT22;1687;49.540;8.574;2022-11-12T01:39:01;9.90;99.90
3348;DHT22;1687;49.540;8.574;2022-11-12T01:41:31;9.90;99.90
3348;DHT22;1687;49.540;8.574;2022-11-12T01:44:14;9.80;99.90
3348;DHT22;1687;49.540;8.574;2022-11-12T01:46:50;9.90;99.90
3348;DHT22;1687;49.540;8.574;2022-11-12T01:49:33;9.90;99.90
3348;DHT22;1687;49.540;8.574;2022-11-12T01:52:10;9.90;99.90
3348;DHT22;1687;49.540;8.574;2022-11-12T01:54:41;9.90;99.90
3348;DHT22;1687;49.540;8.574;2022-11-12T01:57:09;9.90;99.90
3348;DHT22;1687;49.540;8.574;2022-11-12T01:59:40;9.90;99.90
3348;DHT22;1687;49.540;8.574;2022-11-12T02:02:09;9.80;99.90
3348;DHT22;1687;49.540;8.574;2022-11-12T02:04:36;9.80;99.90
3348;DHT22;1687;49.540;8.574;2022-11-12T02:07:03;9.80;99.90
3348;DHT22;1687;49.540;8.574;2022-11-12T02:09:31;9.80;99.90
3348;DHT22;1687;49.540;8.574;2022-11-12T02:11:58;9.90;99.90
3348;DHT22;1687;49.540;8.574;2022-11-12T02:14:24;9.90;99.90
3348;DHT22;1687;49.540;8.574;2022-11-12T02:16:50;9.80;99.90
3348;DHT22;1687;49.540;8.574;2022-11-12T02:19:16;9.80;99.90
3348;DHT22;1687;49.540;8.574;2022-11-12T02:21:42;9.80;99.90
3348;DHT22;1687;49.540;8.574;2022-11-12T02:26:40;9.80;99.90
3348;DHT22;1687;49.540;8.574;2022-11-12T02:29:08;9.80;99.90
3348;DHT22;1687;49.540;8.574;2022-11-12T02:31:34;9.80;99.90
3348;DHT22;1687;49.540;8.574;2022-11-12T02:34:00;9.70;99.90
3348;DHT22;1687;49.540;8.574;2022-11-12T02:36:26;9.60;99.90
3348;DHT22;1687;49.540;8.574;2022-11-12T02:38:52;9.60;99.90
3348;DHT22;1687;49.540;8.574;2022-11-12T02:41:19;9.60;99.90
3348;DHT22;1687;49.540;8.574;2022-11-12T02:43:45;9.60;99.90
3348;DHT22;1687;49.540;8.574;2022-11-12T02:46:11;9.60;99.90
3348;DHT22;1687;49.540;8.574;2022-11-12T02:48:37;9.60;99.90
3348;DHT22;1687;49.540;8.574;2022-11-12T02:51:03;9.60;99.90
3348;DHT22;1687;49.540;8.574;2022-11-12T02:53:29;9.70;99.90
3348;DHT22;1687;49.540;8.574;2022-11-12T02:55:57;9.60;99.90
3348;DHT22;1687;49.540;8.574;2022-11-12T02:58:23;9.60;99.90
3348;DHT22;1687;49.540;8.574;2022-11-12T03:00:49;9.60;99.90
3348;DHT22;1687;49.540;8.574;2022-11-12T03:03:15;9.50;99.90
3348;DHT22;1687;49.540;8.574;2022-11-12T03:05:43;9.50;99.90
3348;DHT22;1687;49.540;8.574;2022-11-12T03:08:09;9.50;99.90
3348;DHT22;1687;49.540;8.574;2022-11-12T03:10:39;9.50;99.90
3348;DHT22;1687;49.540;8.574;2022-11-12T03:13:05;9.40;99.90
3348;DHT22;1687;49.540;8.574;2022-11-12T03:15:31;9.40;99.90
3348;DHT22;1687;49.540;8.574;2022-11-12T03:17:58;9.40;99.90
3348;DHT22;1687;49.540;8.574;2022-11-12T03:20:25;9.40;99.90
3348;DHT22;1687;49.540;8.574;2022-11-12T03:22:56;9.40;99.90
3348;DHT22;1687;49.540;8.574;2022-11-12T03:25:23;9.30;99.80
3348;DHT22;1687;49.540;8.574;2022-11-12T03:27:59;9.20;99.90
3348;DHT22;1687;49.540;8.574;2022-11-12T03:30:27;9.10;99.80
3348;DHT22;1687;49.540;8.574;2022-11-12T03:32:54;9.00;99.90
3348;DHT22;1687;49.540;8.574;2022-11-12T03:35:21;9.00;99.90
3348;DHT22;1687;49.540;8.574;2022-11-12T03:37:47;9.00;99.90
3348;DHT22;1687;49.540;8.574;2022-11-12T03:40:12;9.00;99.90
3348;DHT22;1687;49.540;8.574;2022-11-12T03:42:46;9.00;99.90
3348;DHT22;1687;49.540;8.574;2022-11-12T03:45:14;9.00;99.90
3348;DHT22;1687;49.540;8.574;2022-11-12T03:47:45;9.00;99.90
3348;DHT22;1687;49.540;8.574;2022-11-12T03:50:13;8.90;99.90
3348;DHT22;1687;49.540;8.574;2022-11-12T03:52:47;8.90;99.90
3348;DHT22;1687;49.540;8.574;2022-11-12T03:55:16;8.90;99.90
3348;DHT22;1687;49.540;8.574;2022-11-12T03:57:43;8.80;99.90
3348;DHT22;1687;49.540;8.574;2022-11-12T04:00:10;8.80;99.90
3348;DHT22;1687;49.540;8.574;2022-11-12T04:02:37;8.70;99.80
3348;DHT22;1687;49.540;8.574;2022-11-12T04:05:04;8.70;99.90
3348;DHT22;1687;49.540;8.574;2022-11-12T04:08:07;8.80;99.90
3348;DHT22;1687;49.540;8.574;2022-11-12T04:10:55;8.90;99.90
3348;DHT22;1687;49.540;8.574;2022-11-12T04:13:21;8.90;99.90
3348;DHT22;1687;49.540;8.574;2022-11-12T04:16:08;9.00;99.90
3348;DHT22;1687;49.540;8.574;2022-11-12T04:18:55;9.00;99.90
3348;DHT22;1687;49.540;8.574;2022-11-12T04:21:46;9.10;99.90
3348;DHT22;1687;49.540;8.574;2022-11-12T04:24:30;9.00;99.90
3348;DHT22;1687;49.540;8.574;2022-11-12T04:27:19;8.80;99.50
3348;DHT22;1687;49.540;8.574;2022-11-12T04:29:46;8.80;99.90
3348;DHT22;1687;49.540;8.574;2022-11-12T04:32:33;8.80;99.90
3348;DHT22;1687;49.540;8.574;2022-11-12T04:35:01;8.90;99.90
3348;DHT22;1687;49.540;8.574;2022-11-12T04:37:29;8.70;99.90
3348;DHT22;1687;49.540;8.574;2022-11-12T04:42:58;8.80;99.90
3348;DHT22;1687;49.540;8.574;2022-11-12T04:45:45;8.70;99.60
3348;DHT22;1687;49.540;8.574;2022-11-12T04:48:13;8.60;99.90
3348;DHT22;1687;49.540;8.574;2022-11-12T04:50:39;8.60;99.90
3348;DHT22;1687;49.540;8.574;2022-11-12T04:53:06;8.60;99.90
3348;DHT22;1687;49.540;8.574;2022-11-12T04:55:32;8.70;99.90
3348;DHT22;1687;49.540;8.574;2022-11-12T04:57:57;8.70;99.90
3348;DHT22;1687;49.540;8.574;2022-11-12T05:00:24;8.80;99.90
3348;DHT22;1687;49.540;8.574;2022-11-12T05:02:49;8.80;99.90
3348;DHT22;1687;49.540;8.574;2022-11-12T05:05:16;8.80;99.90
3348;DHT22;1687;49.540;8.574;2022-11-12T05:07:41;8.80;99.90
3348;DHT22;1687;49.540;8.574;2022-11-12T05:10:08;8.70;99.90
3348;DHT22;1687;49.540;8.574;2022-11-12T05:12:35;8.60;99.90
3348;DHT22;1687;49.540;8.574;2022-11-12T05:15:01;8.50;99.60
3348;DHT22;1687;49.540;8.574;2022-11-12T05:17:27;8.30;99.70
3348;DHT22;1687;49.540;8.574;2022-11-12T05:19:53;8.30;99.90
3348;DHT22;1687;49.540;8.574;2022-11-12T05:22:19;8.30;99.90
3348;DHT22;1687;49.540;8.574;2022-11-12T05:24:45;8.30;99.90
3348;DHT22;1687;49.540;8.574;2022-11-12T05:27:13;8.20;99.70
3348;DHT22;1687;49.540;8.574;2022-11-12T05:29:42;8.10;99.80
3348;DHT22;1687;49.540;8.574;2022-11-12T05:32:10;8.10;99.90
3348;DHT22;1687;49.540;8.574;2022-11-12T05:34:36;8.20;99.90
3348;DHT22;1687;49.540;8.574;2022-11-12T05:37:04;8.20;99.90
3348;DHT22;1687;49.540;8.574;2022-11-12T05:39:30;8.10;99.90
3348;DHT22;1687;49.540;8.574;2022-11-12T05:41:56;8.20;99.90
3348;DHT22;1687;49.540;8.574;2022-11-12T05:44:22;8.30;99.90
3348;DHT22;1687;49.540;8.574;2022-11-12T05:46:48;8.40;99.90
3348;DHT22;1687;49.540;8.574;2022-11-12T05:49:15;8.40;99.90
3348;DHT22;1687;49.540;8.574;2022-11-12T05:51:41;8.30;99.90
3348;DHT22;1687;49.540;8.574;2022-11-12T05:54:07;8.40;99.90
3348;DHT22;1687;49.540;8.574;2022-11-12T05:56:33;8.50;99.90
3348;DHT22;1687;49.540;8.574;2022-11-12T05:59:01;8.50;99.90
3348;DHT22;1687;49.540;8.574;2022-11-12T06:01:28;8.60;99.90
3348;DHT22;1687;49.540;8.574;2022-11-12T06:03:55;8.60;99.90
3348;DHT22;1687;49.540;8.574;2022-11-12T06:06:21;8.70;99.90
3348;DHT22;1687;49.540;8.574;2022-11-12T06:08:47;8.70;99.90
3348;DHT22;1687;49.540;8.574;2022-11-12T06:11:13;8.80;99.90
3348;DHT22;1687;49.540;8.574;2022-11-12T06:13:39;8.80;99.90
3348;DHT22;1687;49.540;8.574;2022-11-12T06:16:05;8.70;99.90
3348;DHT22;1687;49.540;8.574;2022-11-12T06:18:31;8.70;99.90
3348;DHT22;1687;49.540;8.574;2022-11-12T06:21:08;8.50;99.70
3348;DHT22;1687;49.540;8.574;2022-11-12T06:23:44;8.40;99.70
3348;DHT22;1687;49.540;8.574;2022-11-12T06:26:10;8.20;99.70
3348;DHT22;1687;49.540;8.574;2022-11-12T06:28:36;8.20;99.90
3348;DHT22;1687;49.540;8.574;2022-11-12T06:31:02;8.30;99.90
3348;DHT22;1687;49.540;8.574;2022-11-12T06:33:28;8.30;99.90
3348;DHT22;1687;49.540;8.574;2022-11-12T06:36:01;8.40;99.90
3348;DHT22;1687;49.540;8.574;2022-11-12T06:38:30;8.50;99.90
3348;DHT22;1687;49.540;8.574;2022-11-12T06:40:57;8.60;99.90
3348;DHT22;1687;49.540;8.574;2022-11-12T06:43:24;8.60;99.90
3348;DHT22;1687;49.540;8.574;2022-11-12T06:45:50;8.70;99.90
3348;DHT22;1687;49.540;8.574;2022-11-12T06:48:16;8.80;99.90
3348;DHT22;1687;49.540;8.574;2022-11-12T06:50:42;8.80;99.90
3348;DHT22;1687;49.540;8.574;2022-11-12T06:53:07;8.80;99.90
3348;DHT22;1687;49.540;8.574;2022-11-12T06:55:33;8.90;99.90
3348;DHT22;1687;49.540;8.574;2022-11-12T06:57:59;8.90;99.90
3348;DHT22;1687;49.540;8.574;2022-11-12T07:00:25;8.90;99.90
3348;DHT22;1687;49.540;8.574;2022-11-12T07:02:50;8.90;99.90
3348;DHT22;1687;49.540;8.574;2022-11-12T07:05:16;8.90;99.90
3348;DHT22;1687;49.540;8.574;2022-11-12T07:07:42;8.80;99.90
3348;DHT22;1687;49.540;8.574;2022-11-12T07:10:08;8.80;99.90
3348;DHT22;1687;49.540;8.574;2022-11-12T07:12:33;8.80;99.90
3348;DHT22;1687;49.540;8.574;2022-11-12T07:14:59;8.90;99.90
3348;DHT22;1687;49.540;8.574;2022-11-12T07:17:25;8.90;99.90
3348;DHT22;1687;49.540;8.574;2022-11-12T07:19:50;8.90;99.90
3348;DHT22;1687;49.540;8.574;2022-11-12T07:22:16;8.80;99.80
3348;DHT22;1687;49.540;8.574;2022-11-12T07:24:42;8.70;99.90
3348;DHT22;1687;49.540;8.574;2022-11-12T07:27:07;8.70;99.90
3348;DHT22;1687;49.540;8.574;2022-11-12T07:29:33;8.70;99.90
3348;DHT22;1687;49.540;8.574;2022-11-12T07:31:59;8.80;99.90
3348;DHT22;1687;49.540;8.574;2022-11-12T07:34:24;8.80;99.90
3348;DHT22;1687;49.540;8.574;2022-11-12T07:36:50;8.80;99.90
3348;DHT22;1687;49.540;8.574;2022-11-12T07:39:16;8.70;99.90
3348;DHT22;1687;49.540;8.574;2022-11-12T07:41:42;8.70;99.90
3348;DHT22;1687;49.540;8.574;2022-11-12T07:44:08;8.80;99.90
3348;DHT22;1687;49.540;8.574;2022-11-12T07:46:34;8.80;99.90
3348;DHT22;1687;49.540;8.574;2022-11-12T07:49:00;8.80;99.90
3348;DHT22;1687;49.540;8.574;2022-11-12T07:51:28;8.80;99.90
3348;DHT22;1687;49.540;8.574;2022-11-12T07:53:55;8.90;99.90
3348;DHT22;1687;49.540;8.574;2022-11-12T07:56:23;8.80;99.90
3348;DHT22;1687;49.540;8.574;2022-11-12T07:58:50;8.80;99.90
3348;DHT22;1687;49.540;8.574;2022-11-12T08:03:54;8.60;99.90
3348;DHT22;1687;49.540;8.574;2022-11-12T08:06:20;8.60;99.90
3348;DHT22;1687;49.540;8.574;2022-11-12T08:08:46;8.60;99.90
3348;DHT22;1687;49.540;8.574;2022-11-12T08:11:12;8.60;99.90
3348;DHT22;1687;49.540;8.574;2022-11-12T08:13:37;8.70;99.90
3348;DHT22;1687;49.540;8.574;2022-11-12T08:16:03;8.70;99.90
3348;DHT22;1687;49.540;8.574;2022-11-12T08:18:29;8.80;99.90
3348;DHT22;1687;49.540;8.574;2022-11-12T08:21:00;8.70;99.80
3348;DHT22;1687;49.540;8.574;2022-11-12T08:23:26;8.60;99.90
3348;DHT22;1687;49.540;8.574;2022-11-12T08:25:59;8.60;99.90
3348;DHT22;1687;49.540;8.574;2022-11-12T08:28:27;8.60;99.90
3348;DHT22;1687;49.540;8.574;2022-11-12T08:30:53;8.60;99.80
3348;DHT22;1687;49.540;8.574;2022-11-12T08:33:20;8.50;99.70
3348;DHT22;1687;49.540;8.574;2022-11-12T08:35:46;8.50;99.90
3348;DHT22;1687;49.540;8.574;2022-11-12T08:38:12;8.60;99.80
3348;DHT22;1687;49.540;8.574;2022-11-12T08:40:38;8.50;99.80
3348;DHT22;1687;49.540;8.574;2022-11-12T08:43:06;8.50;99.90
3348;DHT22;1687;49.540;8.574;2022-11-12T08:45:36;8.50;99.90
3348;DHT22;1687;49.540;8.574;2022-11-12T08:48:08;8.50;99.90
3348;DHT22;1687;49.540;8.574;2022-11-12T08:50:38;8.60;99.90
3348;DHT22;1687;49.540;8.574;2022-11-12T08:53:12;8.70;99.90
3348;DHT22;1687;49.540;8.574;2022-11-12T08:55:38;8.70;99.90
3348;DHT22;1687;49.540;8.574;2022-11-12T08:58:05;8.70;99.70
3348;DHT22;1687;49.540;8.574;2022-11-12T09:03:14;8.50;99.70
3348;DHT22;1687;49.540;8.574;2022-11-12T09:05:41;8.50;99.90
3348;DHT22;1687;49.540;8.574;2022-11-12T09:08:09;8.60;99.90
3348;DHT22;1687;49.540;8.574;2022-11-12T09:10:36;8.70;99.90
3348;DHT22;1687;49.540;8.574;2022-11-12T09:13:03;8.70;99.90
3348;DHT22;1687;49.540;8.574;2022-11-12T09:15:29;8.80;99.90
3348;DHT22;1687;49.540;8.574;2022-11-12T09:17:56;8.90;99.90
3348;DHT22;1687;49.540;8.574;2022-11-12T09:20:22;8.90;99.90
3348;DHT22;1687;49.540;8.574;2022-11-12T09:22:48;9.00;99.90
3348;DHT22;1687;49.540;8.574;2022-11-12T09:25:14;9.00;99.90
3348;DHT22;1687;49.540;8.574;2022-11-12T09:27:40;9.10;99.90
3348;DHT22;1687;49.540;8.574;2022-11-12T09:30:07;9.20;99.90
3348;DHT22;1687;49.540;8.574;2022-11-12T09:32:33;9.30;99.90
3348;DHT22;1687;49.540;8.574;2022-11-12T09:34:58;9.30;99.90
3348;DHT22;1687;49.540;8.574;2022-11-12T09:37:24;9.30;99.90
3348;DHT22;1687;49.540;8.574;2022-11-12T09:39:50;9.30;99.90
3348;DHT22;1687;49.540;8.574;2022-11-12T09:42:18;9.40;99.90
3348;DHT22;1687;49.540;8.574;2022-11-12T09:44:58;9.50;99.90
3348;DHT22;1687;49.540;8.574;2022-11-12T09:47:35;9.30;99.70
3348;DHT22;1687;49.540;8.574;2022-11-12T09:50:28;9.30;99.90
3348;DHT22;1687;49.540;8.574;2022-11-12T09:53:17;9.20;99.80
3348;DHT22;1687;49.540;8.574;2022-11-12T09:55:49;9.10;99.90
3348;DHT22;1687;49.540;8.574;2022-11-12T09:58:17;9.20;99.90
3348;DHT22;1687;49.540;8.574;2022-11-12T10:01:36;9.10;99.90
3348;DHT22;1687;49.540;8.574;2022-11-12T10:07:33;9.00;99.90
3348;DHT22;1687;49.540;8.574;2022-11-12T10:10:15;9.00;99.90
3348;DHT22;1687;49.540;8.574;2022-11-12T10:13:08;9.10;99.90
3348;DHT22;1687;49.540;8.574;2022-11-12T10:19:33;9.20;99.90
3348;DHT22;1687;49.540;8.574;2022-11-12T10:22:22;9.10;99.70
3348;DHT22;1687;49.540;8.574;2022-11-12T10:24:51;9.10;99.90
3348;DHT22;1687;49.540;8.574;2022-11-12T10:27:20;9.10;99.90
3348;DHT22;1687;49.540;8.574;2022-11-12T10:29:58;9.20;99.90
3348;DHT22;1687;49.540;8.574;2022-11-12T10:32:26;9.20;99.80
3348;DHT22;1687;49.540;8.574;2022-11-12T10:34:52;9.20;99.90
3348;DHT22;1687;49.540;8.574;2022-11-12T10:37:26;9.30;99.90
3348;DHT22;1687;49.540;8.574;2022-11-12T10:45:25;9.50;99.90
3348;DHT22;1687;49.540;8.574;2022-11-12T10:47:50;9.50;99.90
3348;DHT22;1687;49.540;8.574;2022-11-12T10:53:03;9.40;99.70
3348;DHT22;1687;49.540;8.574;2022-11-12T10:55:32;9.40;99.80
3348;DHT22;1687;49.540;8.574;2022-11-12T10:58:13;9.30;99.70
3348;DHT22;1687;49.540;8.574;2022-11-12T11:01:04;9.30;99.60
3348;DHT22;1687;49.540;8.574;2022-11-12T11:03:46;9.30;99.90
3348;DHT22;1687;49.540;8.574;2022-11-12T11:08:44;9.60;99.90
3348;DHT22;1687;49.540;8.574;2022-11-12T11:11:23;9.60;99.90
3348;DHT22;1687;49.540;8.574;2022-11-12T11:14:23;9.70;99.90
3348;DHT22;1687;49.540;8.574;2022-11-12T11:16:53;9.70;99.60
3348;DHT22;1687;49.540;8.574;2022-11-12T11:19:39;9.60;99.60
3348;DHT22;1687;49.540;8.574;2022-11-12T11:22:20;9.60;99.90
3348;DHT22;1687;49.540;8.574;2022-11-12T11:36:30;9.90;99.90
3348;DHT22;1687;49.540;8.574;2022-11-12T11:39:17;9.90;99.90
3348;DHT22;1687;49.540;8.574;2022-11-12T11:42:17;9.90;99.70
3348;DHT22;1687;49.540;8.574;2022-11-12T11:45:14;9.90;99.90
3348;DHT22;1687;49.540;8.574;2022-11-12T11:50:33;9.90;99.80
3348;DHT22;1687;49.540;8.574;2022-11-12T11:53:25;9.90;99.60
3348;DHT22;1687;49.540;8.574;2022-11-12T11:56:33;9.90;99.90
3348;DHT22;1687;49.540;8.574;2022-11-12T12:10:23;10.10;99.30
3348;DHT22;1687;49.540;8.574;2022-11-12T12:13:01;10.10;99.30
3348;DHT22;1687;49.540;8.574;2022-11-12T12:18:35;9.80;99.40
3348;DHT22;1687;49.540;8.574;2022-11-12T12:21:23;9.80;99.70
3348;DHT22;1687;49.540;8.574;2022-11-12T12:27:13;9.70;99.90
3348;DHT22;1687;49.540;8.574;2022-11-12T12:30:20;9.80;99.70
3348;DHT22;1687;49.540;8.574;2022-11-12T12:32:53;9.80;99.60
3348;DHT22;1687;49.540;8.574;2022-11-12T12:35:34;9.80;99.50
3348;DHT22;1687;49.540;8.574;2022-11-12T12:38:14;9.70;99.60
3348;DHT22;1687;49.540;8.574;2022-11-12T12:41:08;9.70;99.70
3348;DHT22;1687;49.540;8.574;2022-11-12T12:43:45;9.60;99.40
3348;DHT22;1687;49.540;8.574;2022-11-12T12:46:14;9.70;99.70
3348;DHT22;1687;49.540;8.574;2022-11-12T12:48:44;9.60;99.60
3348;DHT22;1687;49.540;8.574;2022-11-12T12:51:10;9.60;99.60
3348;DHT22;1687;49.540;8.574;2022-11-12T12:53:36;9.60;99.40
3348;DHT22;1687;49.540;8.574;2022-11-12T12:58:57;9.50;99.60
3348;DHT22;1687;49.540;8.574;2022-11-12T13:01:31;9.50;99.50
3348;DHT22;1687;49.540;8.574;2022-11-12T13:03:59;9.60;99.90
3348;DHT22;1687;49.540;8.574;2022-11-12T13:06:34;9.60;99.70
3348;DHT22;1687;49.540;8.574;2022-11-12T13:09:06;9.60;99.50
3348;DHT22;1687;49.540;8.574;2022-11-12T13:11:50;9.70;99.70
3348;DHT22;1687;49.540;8.574;2022-11-12T13:17:11;10.00;99.20
3348;DHT22;1687;49.540;8.574;2022-11-12T13:22:48;10.10;99.10
3348;DHT22;1687;49.540;8.574;2022-11-12T13:43:35;9.80;99.80
3348;DHT22;1687;49.540;8.574;2022-11-12T13:56:54;9.70;99.70
3348;DHT22;1687;49.540;8.574;2022-11-12T13:59:22;9.80;99.60
3348;DHT22;1687;49.540;8.574;2022-11-12T14:01:50;9.70;99.20
3348;DHT22;1687;49.540;8.574;2022-11-12T14:04:20;9.70;99.50
3348;DHT22;1687;49.540;8.574;2022-11-12T14:06:53;9.60;99.20
3348;DHT22;1687;49.540;8.574;2022-11-12T14:12:28;9.60;99.50
3348;DHT22;1687;49.540;8.574;2022-11-12T14:21:04;9.60;99.70
3348;DHT22;1687;49.540;8.574;2022-11-12T14:23:31;9.60;99.20
3348;DHT22;1687;49.540;8.574;2022-11-12T14:25:56;9.50;99.10
3348;DHT22;1687;49.540;8.574;2022-11-12T14:28:28;9.40;99.00
3348;DHT22;1687;49.540;8.574;2022-11-12T14:30:56;9.30;99.30
3348;DHT22;1687;49.540;8.574;2022-11-12T14:33:24;9.40;99.70
3348;DHT22;1687;49.540;8.574;2022-11-12T14:35:52;9.50;99.60
3348;DHT22;1687;49.540;8.574;2022-11-12T14:41:10;9.50;99.30
3348;DHT22;1687;49.540;8.574;2022-11-12T14:43:45;9.50;99.50
3348;DHT22;1687;49.540;8.574;2022-11-12T14:46:28;9.40;99.30
3348;DHT22;1687;49.540;8.574;2022-11-12T14:49:11;9.40;99.50
3348;DHT22;1687;49.540;8.574;2022-11-12T14:51:46;9.30;99.30
3348;DHT22;1687;49.540;8.574;2022-11-12T14:54:22;9.30;99.40
3348;DHT22;1687;49.540;8.574;2022-11-12T14:56:52;9.30;99.50
3348;DHT22;1687;49.540;8.574;2022-11-12T14:59:18;9.30;99.70
3348;DHT22;1687;49.540;8.574;2022-11-12T15:04:43;9.40;99.70
3348;DHT22;1687;49.540;8.574;2022-11-12T15:09:53;9.50;99.50
3348;DHT22;1687;49.540;8.574;2022-11-12T15:12:45;9.40;99.40
3348;DHT22;1687;49.540;8.574;2022-11-12T15:15:20;9.40;99.50
3348;DHT22;1687;49.540;8.574;2022-11-12T15:18:17;9.30;99.40
3348;DHT22;1687;49.540;8.574;2022-11-12T15:20:42;9.20;99.40
3348;DHT22;1687;49.540;8.574;2022-11-12T15:23:17;9.30;99.70
3348;DHT22;1687;49.540;8.574;2022-11-12T15:25:44;9.10;99.10
3348;DHT22;1687;49.540;8.574;2022-11-12T15:28:20;9.00;99.20
3348;DHT22;1687;49.540;8.574;2022-11-12T15:31:04;8.90;99.30
3348;DHT22;1687;49.540;8.574;2022-11-12T15:33:40;8.90;99.50
3348;DHT22;1687;49.540;8.574;2022-11-12T15:36:18;8.90;99.40
3348;DHT22;1687;49.540;8.574;2022-11-12T15:38:48;8.80;99.30
3348;DHT22;1687;49.540;8.574;2022-11-12T15:41:24;8.80;99.40
3348;DHT22;1687;49.540;8.574;2022-11-12T15:43:52;8.70;99.30
3348;DHT22;1687;49.540;8.574;2022-11-12T15:46:17;8.70;99.60
3348;DHT22;1687;49.540;8.574;2022-11-12T15:48:43;8.80;99.70
3348;DHT22;1687;49.540;8.574;2022-11-12T15:51:10;8.80;99.70
3348;DHT22;1687;49.540;8.574;2022-11-12T15:53:36;8.90;99.60
3348;DHT22;1687;49.540;8.574;2022-11-12T15:56:07;8.90;99.50
3348;DHT22;1687;49.540;8.574;2022-11-12T15:58:36;8.80;99.50
3348;DHT22;1687;49.540;8.574;2022-11-12T16:01:04;8.80;99.60
3348;DHT22;1687;49.540;8.574;2022-11-12T16:03:30;8.80;99.60
3348;DHT22;1687;49.540;8.574;2022-11-12T16:05:55;8.90;99.80
3348;DHT22;1687;49.540;8.574;2022-11-12T16:08:21;8.90;99.60
3348;DHT22;1687;49.540;8.574;2022-11-12T16:10:47;8.90;99.60
3348;DHT22;1687;49.540;8.574;2022-11-12T16:13:25;8.90;99.70
3348;DHT22;1687;49.540;8.574;2022-11-12T16:15:52;9.00;99.90
3348;DHT22;1687;49.540;8.574;2022-11-12T16:18:18;9.00;99.60
3348;DHT22;1687;49.540;8.574;2022-11-12T16:20:44;9.00;99.80
3348;DHT22;1687;49.540;8.574;2022-11-12T16:23:11;9.00;99.70
3348;DHT22;1687;49.540;8.574;2022-11-12T16:25:38;9.00;99.60
3348;DHT22;1687;49.540;8.574;2022-11-12T16:28:12;8.90;99.60
3348;DHT22;1687;49.540;8.574;2022-11-12T16:30:40;8.90;99.70
3348;DHT22;1687;49.540;8.574;2022-11-12T16:33:08;8.90;99.80
3348;DHT22;1687;49.540;8.574;2022-11-12T16:35:34;9.00;99.70
3348;DHT22;1687;49.540;8.574;2022-11-12T16:38:00;9.00;99.70
3348;DHT22;1687;49.540;8.574;2022-11-12T16:40:29;9.00;99.90
3348;DHT22;1687;49.540;8.574;2022-11-12T16:42:55;9.10;99.90
3348;DHT22;1687;49.540;8.574;2022-11-12T16:45:32;9.00;99.50
3348;DHT22;1687;49.540;8.574;2022-11-12T16:47:59;8.90;99.50
3348;DHT22;1687;49.540;8.574;2022-11-12T16:50:26;8.80;99.60
3348;DHT22;1687;49.540;8.574;2022-11-12T16:52:53;8.90;99.90
3348;DHT22;1687;49.540;8.574;2022-11-12T16:55:19;9.00;99.90
3348;DHT22;1687;49.540;8.574;2022-11-12T16:57:45;9.00;99.90
3348;DHT22;1687;49.540;8.574;2022-11-12T17:00:13;9.10;99.90
3348;DHT22;1687;49.540;8.574;2022-11-12T17:02:40;9.10;99.90
3348;DHT22;1687;49.540;8.574;2022-11-12T17:05:11;9.20;99.90
3348;DHT22;1687;49.540;8.574;2022-11-12T17:07:39;9.20;99.80
3348;DHT22;1687;49.540;8.574;2022-11-12T17:10:05;9.10;99.60
3348;DHT22;1687;49.540;8.574;2022-11-12T17:12:31;9.00;99.70
3348;DHT22;1687;49.540;8.574;2022-11-12T17:14:57;9.00;99.80
3348;DHT22;1687;49.540;8.574;2022-11-12T17:17:23;8.90;99.50
3348;DHT22;1687;49.540;8.574;2022-11-12T17:19:48;8.90;99.80
3348;DHT22;1687;49.540;8.574;2022-11-12T17:22:14;8.90;99.90
3348;DHT22;1687;49.540;8.574;2022-11-12T17:24:40;9.00;99.90
3348;DHT22;1687;49.540;8.574;2022-11-12T17:27:05;9.00;99.90
3348;DHT22;1687;49.540;8.574;2022-11-12T17:29:31;9.00;99.90
3348;DHT22;1687;49.540;8.574;2022-11-12T17:31:57;9.00;99.90
3348;DHT22;1687;49.540;8.574;2022-11-12T17:34:23;9.00;99.80
3348;DHT22;1687;49.540;8.574;2022-11-12T17:36:49;8.90;99.70
3348;DHT22;1687;49.540;8.574;2022-11-12T17:39:14;8.80;99.80
3348;DHT22;1687;49.540;8.574;2022-11-12T17:41:40;8.80;99.90
3348;DHT22;1687;49.540;8.574;2022-11-12T17:44:06;8.90;99.90
3348;DHT22;1687;49.540;8.574;2022-11-12T17:46:32;9.00;99.90
3348;DHT22;1687;49.540;8.574;2022-11-12T17:48:58;9.00;99.90
3348;DHT22;1687;49.540;8.574;2022-11-12T17:51:26;9.00;99.80
3348;DHT22;1687;49.540;8.574;2022-11-12T17:53:53;9.00;99.90
3348;DHT22;1687;49.540;8.574;2022-11-12T17:56:20;9.00;99.90
3348;DHT22;1687;49.540;8.574;2022-11-12T17:58:48;9.10;99.90
3348;DHT22;1687;49.540;8.574;2022-11-12T18:03:46;8.90;99.70
3348;DHT22;1687;49.540;8.574;2022-11-12T18:06:17;8.90;99.90
3348;DHT22;1687;49.540;8.574;2022-11-12T18:08:44;8.90;99.90
3348;DHT22;1687;49.540;8.574;2022-11-12T18:11:12;8.90;99.90
3348;DHT22;1687;49.540;8.574;2022-11-12T18:13:39;9.00;99.90
3348;DHT22;1687;49.540;8.574;2022-11-12T18:16:17;9.00;99.90
3348;DHT22;1687;49.540;8.574;2022-11-12T18:18:44;9.00;99.90
3348;DHT22;1687;49.540;8.574;2022-11-12T18:21:10;9.10;99.90
3348;DHT22;1687;49.540;8.574;2022-11-12T18:23:38;9.10;99.90
3348;DHT22;1687;49.540;8.574;2022-11-12T18:26:05;9.00;99.90
3348;DHT22;1687;49.540;8.574;2022-11-12T18:28:31;9.00;99.90
3348;DHT22;1687;49.540;8.574;2022-11-12T18:31:02;8.90;99.90
3348;DHT22;1687;49.540;8.574;2022-11-12T18:33:29;8.90;99.90